Aérodrome :
LOGIN :

S'inscrire | Disclaimer

   EN    FR    IT 

 










Légende :    VFR   VFR Marginal   IFR   IFR Intensif   IFR Très Intensif
Visi : 
Plafond : 
>= 8 km
>= 3000ft
5 à 8 km
1000 à 3000 ft
1500m à 5 km
500 à 1000 ft
800 à 1500m
200 à 500 ft
< 800m
< 200 ft
Symboles :   Orages  Brouillard  Fortes neiges  Fortes précipitations  Vent > 20 kt
SIGMETs :   Divers  Orages  Givrage  Turbulence  Onde Orograph.  Cendres Volcan.






- Altitude de l'aérodrome : 82 ft
- Code IATA : ALG


DAAG - Alger Houari Boumedienne

DERNIER METAR :
  • 271330Z 09011KT 7000 FEW023TCU FEW026CB BKN040 19/17 Q1013

METARs EXPIRÉS :
  • 271300Z 10005KT 030V150 7000 FEW023TCU FEW026CB BKN040 20/18 Q1013
  • 271230Z 25001KT 4000 FEW023TCU FEW026CB BKN040 19/17 Q1013 RERA
  • 271200Z 12004KT 090V150 4000 RA FEW023TCU FEW026CB BKN040 19/17 Q1013
  • 271130Z 16005KT 8000 FEW023TCU FEW026CB BKN040 19/17 Q1013
  • 271100Z 07005KT 030V100 8000 FEW023TCU FEW026CB BKN040 19/17 Q1013 RERA

TAF TAF DAAG
Valide du 27 à 12h jusqu'au 28 à 12h UTC


271100Z 2712/2812 04012KT 9999 FEW023 BKN040
PROB40
TEMPO 2712/2716 06015G25KT 5000 -RA FEW023CB
PROB30
TEMPO 2716/2720 FEW026CB
BECMG 2718/2721 VRB02KT
BECMG 2809/2812 34010KT



MET'MAP, la Météo Aéronautique d'un coup d'oeil ! - Copyright ORBIFLY Décembre 2007 - Disclaimer

ORBIFLY MET'MAP TEAM :

Programmation & Développement : Alexandra Zaïnal
Sur une idée originale de : Baudouin d'Aumeries
Assistance à la programmation : Marc-Olivier Méhu
Soutien technique & logistique : Manuel Goepfert

Contact : metmap@orbifly.com




SOURCES & CREDITS :

   NOAA